createdAt,value
2022-08-23T00:00:12.854Z,21.70
2022-08-23T00:01:18.562Z,21.70
2022-08-23T00:02:24.083Z,21.70
2022-08-23T00:03:25.832Z,21.70
2022-08-23T00:04:34.847Z,21.70
2022-08-23T00:05:36.993Z,21.60
2022-08-23T00:06:39.713Z,21.60
2022-08-23T00:07:43.755Z,21.60
2022-08-23T00:08:48.623Z,21.60
2022-08-23T00:09:50.469Z,21.60
2022-08-23T00:10:52.087Z,21.60
2022-08-23T00:12:02.698Z,21.60
2022-08-23T00:13:04.326Z,21.50
2022-08-23T00:14:16.383Z,21.60
2022-08-23T00:15:20.383Z,21.60
2022-08-23T00:16:22.365Z,21.60
2022-08-23T00:17:31.034Z,21.60
2022-08-23T00:18:35.576Z,21.60
2022-08-23T00:19:39.352Z,21.60
2022-08-23T00:20:41.028Z,21.60
2022-08-23T00:21:43.875Z,21.50
2022-08-23T00:22:45.538Z,21.60
2022-08-23T00:23:47.239Z,21.50
2022-08-23T00:24:49.592Z,21.50
2022-08-23T00:25:51.233Z,21.50
2022-08-23T00:27:07.572Z,21.50
2022-08-23T00:28:14.679Z,21.50
2022-08-23T00:29:17.225Z,21.60
2022-08-23T00:30:19.360Z,21.60
2022-08-23T00:31:21.098Z,21.60
2022-08-23T00:32:31.884Z,21.50
2022-08-23T00:33:33.582Z,21.50
2022-08-23T00:34:37.123Z,21.50
2022-08-23T00:35:38.996Z,21.50
2022-08-23T00:36:41.138Z,21.60
2022-08-23T00:37:43.002Z,21.50
2022-08-23T00:38:52.324Z,21.50
2022-08-23T00:39:54.069Z,21.40
2022-08-23T00:40:56.711Z,21.50
2022-08-23T00:42:24.116Z,21.40
2022-08-23T00:43:57.053Z,21.40
2022-08-23T00:45:20.745Z,21.40
2022-08-23T00:47:01.853Z,21.30
2022-08-23T00:48:05.781Z,21.30
2022-08-23T00:49:11.238Z,21.30
2022-08-23T00:50:24.024Z,21.40
2022-08-23T00:51:43.141Z,21.40
2022-08-23T00:53:14.553Z,21.40
2022-08-23T00:54:17.050Z,21.40
2022-08-23T00:55:21.100Z,21.40
2022-08-23T00:56:25.508Z,21.30
2022-08-23T00:57:31.148Z,21.40
2022-08-23T00:58:32.818Z,21.40
2022-08-23T00:59:34.524Z,21.30
2022-08-23T01:00:36.338Z,21.20
2022-08-23T01:01:38.981Z,21.30
2022-08-23T01:02:42.201Z,21.20
2022-08-23T01:03:49.541Z,21.20
2022-08-23T01:04:59.911Z,21.10
2022-08-23T01:06:19.764Z,21.10
2022-08-23T01:07:49.184Z,21.10
2022-08-23T01:09:19.385Z,20.90
2022-08-23T01:10:36.581Z,20.90
2022-08-23T01:12:06.657Z,20.90
2022-08-23T01:13:27.163Z,20.90
2022-08-23T01:14:44.388Z,20.90
2022-08-23T01:15:54.459Z,20.90
2022-08-23T01:17:22.414Z,21.00
2022-08-23T01:18:26.847Z,20.90
2022-08-23T01:19:38.655Z,20.90
2022-08-23T01:20:56.244Z,20.80
2022-08-23T01:22:21.525Z,20.80
2022-08-23T01:23:36.341Z,20.80
2022-08-23T01:25:06.156Z,20.70
2022-08-23T01:26:01.540Z,20.60
2022-08-23T01:27:03.950Z,20.50
2022-08-23T01:28:05.708Z,20.50
2022-08-23T01:29:08.044Z,20.40
2022-08-23T01:30:12.503Z,20.40
2022-08-23T01:31:15.409Z,20.40
2022-08-23T01:32:17.182Z,20.30
2022-08-23T01:33:19.570Z,20.30
2022-08-23T01:34:26.513Z,20.30
2022-08-23T01:35:41.194Z,20.20
2022-08-23T01:36:43.984Z,20.20
2022-08-23T01:37:45.797Z,20.10
2022-08-23T01:38:48.062Z,20.00
2022-08-23T01:39:49.750Z,19.90
2022-08-23T01:40:52.110Z,19.90
2022-08-23T01:41:54.016Z,19.90
2022-08-23T01:42:55.634Z,19.80
2022-08-23T01:43:57.977Z,19.70
2022-08-23T01:44:59.736Z,19.70
2022-08-23T01:46:14.853Z,19.70
2022-08-23T01:47:16.466Z,19.60
2022-08-23T01:48:19.624Z,19.70
2022-08-23T01:49:21.263Z,19.80
2022-08-23T01:50:22.973Z,19.80
2022-08-23T01:51:25.222Z,19.80
2022-08-23T01:52:28.012Z,19.80
2022-08-23T01:53:29.781Z,19.90
2022-08-23T01:54:31.379Z,19.90
2022-08-23T01:55:33.792Z,19.90
2022-08-23T01:56:38.834Z,19.90
2022-08-23T01:57:42.454Z,19.90
2022-08-23T01:58:49.081Z,19.90
2022-08-23T01:59:50.708Z,19.90
2022-08-23T02:00:52.337Z,20.00
2022-08-23T02:01:54.590Z,20.00
2022-08-23T02:02:57.720Z,20.10
2022-08-23T02:04:04.620Z,20.00
2022-08-23T02:05:07.771Z,20.00
2022-08-23T02:06:09.406Z,20.00
2022-08-23T02:07:11.153Z,20.00
2022-08-23T02:08:31.321Z,20.00
2022-08-23T02:09:32.919Z,20.00
2022-08-23T02:10:34.671Z,20.00
2022-08-23T02:11:39.535Z,20.00
2022-08-23T02:12:41.277Z,20.00
2022-08-23T02:13:44.155Z,20.10
2022-08-23T02:14:45.936Z,20.00
2022-08-23T02:15:51.331Z,20.00
2022-08-23T02:17:03.644Z,19.90
2022-08-23T02:18:06.559Z,20.00
2022-08-23T02:19:11.850Z,19.90
2022-08-23T02:20:14.282Z,19.90
2022-08-23T02:21:16.217Z,19.90
2022-08-23T02:22:17.947Z,20.00
2022-08-23T02:23:21.757Z,20.00
2022-08-23T02:24:25.125Z,20.00
2022-08-23T02:25:26.794Z,20.00
2022-08-23T02:26:30.816Z,20.00
2022-08-23T02:27:32.880Z,20.00
2022-08-23T02:28:34.546Z,20.00
2022-08-23T02:29:39.441Z,20.00
2022-08-23T02:30:41.401Z,19.90
2022-08-23T02:31:46.395Z,19.70
2022-08-23T02:32:48.035Z,19.60
2022-08-23T02:35:09.450Z,19.70
2022-08-23T02:36:11.217Z,19.80
2022-08-23T02:37:14.138Z,19.80
2022-08-23T02:38:16.611Z,19.80
2022-08-23T02:39:18.626Z,19.80
2022-08-23T02:40:20.395Z,19.90
2022-08-23T02:41:22.418Z,19.90
2022-08-23T02:42:24.180Z,19.80
2022-08-23T02:43:25.852Z,19.90
2022-08-23T02:44:27.628Z,19.80
2022-08-23T02:45:31.009Z,19.90
2022-08-23T02:46:32.768Z,19.90
2022-08-23T02:47:36.903Z,19.90
2022-08-23T02:48:39.197Z,19.90
2022-08-23T02:49:41.894Z,20.00
2022-08-23T02:50:43.663Z,20.00
2022-08-23T02:51:46.051Z,20.00
2022-08-23T02:52:47.955Z,19.90
2022-08-23T02:53:49.923Z,20.00
2022-08-23T02:54:51.692Z,19.90
2022-08-23T02:55:59.609Z,19.80
2022-08-23T02:57:01.650Z,19.80
2022-08-23T02:58:05.518Z,19.90
2022-08-23T02:59:07.961Z,19.90
2022-08-23T03:00:12.006Z,19.90
2022-08-23T03:01:27.331Z,19.90
2022-08-23T03:02:29.509Z,19.90
2022-08-23T03:03:31.259Z,19.90
2022-08-23T03:04:35.681Z,19.90
2022-08-23T03:05:37.424Z,19.80
2022-08-23T03:06:39.227Z,19.80
2022-08-23T03:07:41.334Z,19.90
2022-08-23T03:08:44.454Z,19.90
2022-08-23T03:09:46.775Z,19.80
2022-08-23T03:10:50.748Z,19.90
2022-08-23T03:11:52.496Z,20.00
2022-08-23T03:12:54.209Z,19.90
2022-08-23T03:13:58.808Z,19.90
2022-08-23T03:15:00.537Z,20.00
2022-08-23T03:16:02.618Z,19.90
2022-08-23T03:17:05.167Z,19.90
2022-08-23T03:18:08.656Z,20.00
2022-08-23T03:19:10.422Z,20.00
2022-08-23T03:20:12.138Z,20.00
2022-08-23T03:21:14.913Z,20.00
2022-08-23T03:22:16.640Z,19.90
2022-08-23T03:23:18.422Z,19.90
2022-08-23T03:24:20.152Z,20.00
2022-08-23T03:25:22.416Z,19.90
2022-08-23T03:26:24.159Z,19.90
2022-08-23T03:27:26.324Z,19.90
2022-08-23T03:28:29.234Z,20.00
2022-08-23T03:29:31.991Z,19.90
2022-08-23T03:30:34.610Z,19.80
2022-08-23T03:31:36.441Z,19.70
2022-08-23T03:32:38.143Z,19.70
2022-08-23T03:33:40.550Z,19.70
2022-08-23T03:34:42.281Z,19.70
2022-08-23T03:35:44.231Z,19.60
2022-08-23T03:36:46.277Z,19.60
2022-08-23T03:37:49.102Z,19.60
2022-08-23T03:38:52.944Z,19.70
2022-08-23T03:39:54.649Z,19.70
2022-08-23T03:40:57.144Z,19.70
2022-08-23T03:41:59.162Z,19.70
2022-08-23T03:43:01.797Z,19.70
2022-08-23T03:44:03.841Z,19.70
2022-08-23T03:45:06.046Z,19.70
2022-08-23T03:46:08.057Z,19.70
2022-08-23T03:47:09.759Z,19.70
2022-08-23T03:48:11.421Z,19.60
2022-08-23T03:49:13.228Z,19.70
2022-08-23T03:50:14.930Z,19.70
2022-08-23T03:51:17.452Z,19.70
2022-08-23T03:52:19.084Z,19.70
2022-08-23T03:53:20.725Z,19.70
2022-08-23T03:54:22.860Z,19.70
2022-08-23T03:55:24.630Z,19.70
2022-08-23T03:56:29.491Z,19.70
2022-08-23T03:57:31.154Z,19.70
2022-08-23T03:58:32.780Z,19.70
2022-08-23T03:59:36.459Z,19.70
2022-08-23T04:00:39.036Z,19.80
2022-08-23T04:01:40.826Z,19.70
2022-08-23T04:02:42.508Z,19.70
2022-08-23T04:03:44.136Z,19.70
2022-08-23T04:04:46.092Z,19.70
2022-08-23T04:05:47.685Z,19.70
2022-08-23T04:06:49.317Z,19.70
2022-08-23T04:07:51.422Z,19.70
2022-08-23T04:08:54.630Z,19.70
2022-08-23T04:09:56.410Z,19.70
2022-08-23T04:10:58.203Z,19.70
2022-08-23T04:11:59.818Z,19.70
2022-08-23T04:13:02.644Z,19.70
2022-08-23T04:14:04.400Z,19.60
2022-08-23T04:15:06.436Z,19.60
2022-08-23T04:16:09.096Z,19.70
2022-08-23T04:17:10.793Z,19.60
2022-08-23T04:18:13.943Z,19.60
2022-08-23T04:19:16.332Z,19.60
2022-08-23T04:20:18.456Z,19.50
2022-08-23T04:21:22.974Z,19.50
2022-08-23T04:22:24.771Z,19.60
2022-08-23T04:23:27.945Z,19.60
2022-08-23T04:24:29.641Z,19.50
2022-08-23T04:25:35.566Z,19.50
2022-08-23T04:26:37.712Z,19.50
2022-08-23T04:27:39.437Z,19.60
2022-08-23T04:28:41.109Z,19.60
2022-08-23T04:29:42.775Z,19.60
2022-08-23T04:30:46.850Z,19.60
2022-08-23T04:31:48.946Z,19.60
2022-08-23T04:32:50.715Z,19.60
2022-08-23T04:33:53.678Z,19.60
2022-08-23T04:34:55.308Z,19.60
2022-08-23T04:35:57.174Z,19.60
2022-08-23T04:36:59.340Z,19.70
2022-08-23T04:38:01.162Z,19.70
2022-08-23T04:39:03.502Z,19.70
2022-08-23T04:40:24.103Z,19.70
2022-08-23T04:41:44.425Z,19.80
2022-08-23T04:42:46.012Z,19.80
2022-08-23T04:43:48.119Z,19.80
2022-08-23T04:44:50.462Z,19.80
2022-08-23T04:45:52.257Z,19.80
2022-08-23T04:46:53.916Z,19.80
2022-08-23T04:47:55.645Z,19.90
2022-08-23T04:48:57.428Z,19.90
2022-08-23T04:49:59.068Z,19.80
2022-08-23T04:51:01.010Z,19.80
2022-08-23T04:52:02.862Z,19.80
2022-08-23T04:53:04.521Z,19.80
2022-08-23T04:54:07.798Z,19.90
2022-08-23T04:55:09.699Z,19.90
2022-08-23T04:56:11.545Z,19.90
2022-08-23T04:57:15.352Z,19.90
2022-08-23T04:58:16.971Z,19.90
2022-08-23T04:59:19.620Z,19.80
2022-08-23T05:00:21.473Z,19.90
2022-08-23T05:01:29.137Z,19.90
2022-08-23T05:02:30.783Z,19.90
2022-08-23T05:03:32.384Z,19.90
2022-08-23T05:04:34.448Z,19.90
2022-08-23T05:05:36.121Z,19.90
2022-08-23T05:06:38.477Z,20.00
2022-08-23T05:07:42.792Z,20.00
2022-08-23T05:08:44.773Z,20.00
2022-08-23T05:09:46.450Z,20.00
2022-08-23T05:10:48.216Z,20.10
2022-08-23T05:11:49.909Z,20.10
2022-08-23T05:12:51.622Z,20.10
2022-08-23T05:13:53.238Z,20.20
2022-08-23T05:14:54.861Z,20.20
2022-08-23T05:15:57.099Z,20.30
2022-08-23T05:16:59.489Z,20.30
2022-08-23T05:18:01.197Z,20.30
2022-08-23T05:19:03.155Z,20.20
2022-08-23T05:20:07.669Z,20.20
2022-08-23T05:21:14.686Z,20.30
2022-08-23T05:22:16.299Z,20.30
2022-08-23T05:23:18.095Z,20.30
2022-08-23T05:24:20.185Z,20.40
2022-08-23T05:25:22.272Z,20.40
2022-08-23T05:26:23.951Z,20.50
2022-08-23T05:27:25.898Z,20.50
2022-08-23T05:28:30.487Z,20.50
2022-08-23T05:29:32.091Z,20.60
2022-08-23T05:30:33.712Z,20.60
2022-08-23T05:31:35.665Z,20.60
2022-08-23T05:32:37.480Z,20.60
2022-08-23T05:33:40.735Z,20.60
2022-08-23T05:34:42.719Z,20.70
2022-08-23T05:35:44.346Z,20.80
2022-08-23T05:36:47.406Z,20.80
2022-08-23T05:37:59.656Z,20.80
2022-08-23T05:39:05.643Z,20.80
2022-08-23T05:40:07.938Z,20.80
2022-08-23T05:41:10.428Z,20.90
2022-08-23T05:42:14.784Z,20.90
2022-08-23T05:43:17.437Z,21.00
2022-08-23T05:44:21.460Z,21.00
2022-08-23T05:45:23.241Z,21.00
2022-08-23T05:46:28.357Z,21.00
2022-08-23T05:47:32.745Z,21.10
2022-08-23T05:48:36.043Z,21.10
2022-08-23T05:49:38.367Z,21.10
2022-08-23T05:50:40.165Z,21.10
2022-08-23T05:51:42.356Z,21.10
2022-08-23T05:52:50.385Z,21.20
2022-08-23T05:53:53.827Z,21.20
2022-08-23T05:54:55.435Z,21.20
2022-08-23T05:55:57.053Z,21.20
2022-08-23T05:56:58.724Z,21.20
2022-08-23T05:58:00.745Z,21.30
2022-08-23T05:59:07.974Z,21.30
2022-08-23T06:00:15.498Z,21.30
2022-08-23T06:01:18.850Z,21.30
2022-08-23T06:02:20.532Z,21.30
2022-08-23T06:03:22.161Z,21.30
2022-08-23T06:04:23.925Z,21.40
2022-08-23T06:05:25.620Z,21.40
2022-08-23T06:06:37.211Z,21.50
2022-08-23T06:07:39.506Z,21.40
2022-08-23T06:08:42.377Z,21.40
2022-08-23T06:09:44.067Z,21.40
2022-08-23T06:10:45.916Z,21.40
2022-08-23T06:11:48.960Z,21.40
2022-08-23T06:12:50.573Z,21.40
2022-08-23T06:13:55.334Z,21.40
2022-08-23T06:14:57.729Z,21.50
2022-08-23T06:15:59.604Z,21.50
2022-08-23T06:17:01.230Z,21.60
2022-08-23T06:18:03.075Z,21.60
2022-08-23T06:19:07.632Z,21.70
2022-08-23T06:20:10.354Z,21.70
2022-08-23T06:21:14.056Z,21.80
2022-08-23T06:22:15.916Z,21.80
2022-08-23T06:23:17.503Z,21.90
2022-08-23T06:24:20.130Z,21.90
2022-08-23T06:25:21.746Z,21.90
2022-08-23T06:26:26.736Z,22.00
2022-08-23T06:27:28.576Z,22.00
2022-08-23T06:28:30.510Z,22.10
2022-08-23T06:29:32.286Z,22.10
2022-08-23T06:30:36.981Z,22.10
2022-08-23T06:31:47.780Z,22.20
2022-08-23T06:32:50.419Z,22.30
2022-08-23T06:33:52.080Z,22.30
2022-08-23T06:34:54.395Z,22.20
2022-08-23T06:36:17.192Z,22.10
2022-08-23T06:37:18.832Z,22.10
2022-08-23T06:38:20.840Z,22.20
2022-08-23T06:39:25.828Z,22.20
2022-08-23T06:40:29.056Z,22.10
2022-08-23T06:41:30.882Z,22.10
2022-08-23T06:42:38.100Z,22.20
2022-08-23T06:43:40.879Z,22.20
2022-08-23T06:44:42.748Z,22.20
2022-08-23T06:45:44.442Z,22.20
2022-08-23T06:46:58.514Z,22.10
2022-08-23T06:48:00.476Z,22.20
2022-08-23T06:49:05.252Z,22.20
2022-08-23T06:50:07.408Z,22.20
2022-08-23T06:51:12.520Z,22.20
2022-08-23T06:52:14.247Z,22.20
2022-08-23T06:53:16.964Z,22.20
2022-08-23T06:54:22.101Z,22.20
2022-08-23T06:55:23.739Z,22.10
2022-08-23T06:56:26.710Z,22.00
2022-08-23T06:57:28.453Z,22.00
2022-08-23T06:58:30.078Z,22.00
2022-08-23T06:59:31.730Z,21.90
2022-08-23T07:00:33.366Z,21.80
2022-08-23T07:01:47.698Z,21.80
2022-08-23T07:02:58.780Z,21.80
2022-08-23T07:04:02.400Z,21.90
2022-08-23T07:05:05.114Z,21.90
2022-08-23T07:06:07.816Z,21.90
2022-08-23T07:07:11.790Z,21.90
2022-08-23T07:08:13.953Z,21.90
2022-08-23T07:09:16.743Z,21.90
2022-08-23T07:10:18.588Z,21.80
2022-08-23T07:11:21.906Z,21.90
2022-08-23T07:12:23.570Z,21.80
2022-08-23T07:13:25.221Z,21.80
2022-08-23T07:14:27.695Z,21.80
2022-08-23T07:15:29.398Z,21.80
2022-08-23T07:16:43.375Z,21.80
2022-08-23T07:17:45.245Z,21.90
2022-08-23T07:18:49.560Z,21.90
2022-08-23T07:19:51.766Z,21.90
2022-08-23T07:20:58.671Z,21.90
2022-08-23T07:22:02.776Z,22.00
2022-08-23T07:23:05.451Z,22.00
2022-08-23T07:24:07.355Z,22.00
2022-08-23T07:25:09.338Z,22.00
2022-08-23T07:26:13.616Z,22.10
2022-08-23T07:27:15.267Z,22.00
2022-08-23T07:28:16.925Z,22.00
2022-08-23T07:29:20.858Z,22.00
2022-08-23T07:30:22.521Z,22.00
2022-08-23T07:31:27.478Z,22.10
2022-08-23T07:32:29.202Z,22.00
2022-08-23T07:33:31.730Z,22.10
2022-08-23T07:34:35.135Z,22.10
2022-08-23T07:35:40.236Z,22.20
2022-08-23T07:36:44.301Z,22.10
2022-08-23T07:37:45.902Z,22.10
2022-08-23T07:38:47.901Z,22.20
2022-08-23T07:39:49.533Z,22.20
2022-08-23T07:40:54.120Z,22.20
2022-08-23T07:41:58.264Z,22.20
2022-08-23T07:43:03.141Z,22.20
2022-08-23T07:44:07.107Z,22.30
2022-08-23T07:45:09.988Z,22.30
2022-08-23T07:46:12.702Z,22.30
2022-08-23T07:47:14.593Z,22.40
2022-08-23T07:48:31.817Z,22.40
2022-08-23T07:49:38.234Z,22.40
2022-08-23T07:50:40.791Z,22.40
2022-08-23T07:51:58.775Z,22.50
2022-08-23T07:53:02.956Z,22.60
2022-08-23T07:54:07.181Z,22.60
2022-08-23T07:55:09.285Z,22.60
2022-08-23T07:56:13.356Z,22.70
2022-08-23T07:57:14.973Z,22.60
2022-08-23T07:58:16.759Z,22.70
2022-08-23T07:59:18.375Z,22.70
2022-08-23T08:00:20.055Z,22.80
2022-08-23T08:01:27.670Z,22.90
2022-08-23T08:02:29.321Z,23.00
2022-08-23T08:03:30.968Z,23.00
2022-08-23T08:04:32.584Z,23.10
2022-08-23T08:05:34.814Z,23.00
2022-08-23T08:06:41.810Z,23.10
2022-08-23T08:07:43.504Z,23.10
2022-08-23T08:08:45.812Z,23.10
2022-08-23T08:09:47.457Z,23.20
2022-08-23T08:10:54.278Z,23.20
2022-08-23T08:11:55.896Z,23.30
2022-08-23T08:12:57.982Z,23.30
2022-08-23T08:14:01.540Z,23.50
2022-08-23T08:15:04.830Z,23.50
2022-08-23T08:16:08.732Z,23.50
2022-08-23T08:17:10.704Z,23.60
2022-08-23T08:18:12.388Z,23.60
2022-08-23T08:19:16.896Z,23.70
2022-08-23T08:20:21.803Z,23.80
2022-08-23T08:21:23.723Z,23.80
2022-08-23T08:22:25.324Z,23.90
2022-08-23T08:23:29.229Z,24.00
2022-08-23T08:24:30.858Z,24.00
2022-08-23T08:25:34.246Z,24.00
2022-08-23T08:26:36.379Z,24.10
2022-08-23T08:27:38.541Z,24.10
2022-08-23T08:28:40.769Z,24.10
2022-08-23T08:29:43.826Z,24.10
2022-08-23T08:30:45.421Z,24.20
2022-08-23T08:31:50.377Z,24.30
2022-08-23T08:32:55.692Z,24.40
2022-08-23T08:33:57.360Z,24.50
2022-08-23T08:34:59.019Z,24.60
2022-08-23T08:36:04.308Z,24.60
2022-08-23T08:37:07.598Z,24.60
2022-08-23T08:38:10.907Z,24.60
2022-08-23T08:39:15.942Z,24.60
2022-08-23T08:40:26.710Z,24.60
2022-08-23T08:42:03.816Z,24.60
2022-08-23T08:43:20.898Z,24.50
2022-08-23T08:44:37.418Z,24.60
2022-08-23T08:46:06.372Z,24.60
2022-08-23T08:47:19.381Z,24.60
2022-08-23T08:48:24.281Z,24.70
2022-08-23T08:49:35.378Z,24.80
2022-08-23T08:50:43.161Z,24.90
2022-08-23T08:51:58.746Z,24.90
2022-08-23T08:53:30.989Z,25.00
2022-08-23T08:54:32.879Z,25.10
2022-08-23T08:55:44.692Z,25.20
2022-08-23T08:56:52.376Z,25.20
2022-08-23T08:57:55.226Z,25.10
2022-08-23T08:59:03.765Z,25.00
2022-08-23T09:00:08.894Z,25.20
2022-08-23T09:01:10.581Z,25.20
2022-08-23T09:02:31.911Z,25.30
2022-08-23T09:03:36.141Z,25.30
2022-08-23T09:04:38.153Z,25.50
2022-08-23T09:05:52.618Z,25.70
2022-08-23T09:07:37.600Z,25.80
2022-08-23T09:08:53.904Z,26.00
2022-08-23T09:10:11.476Z,26.10
2022-08-23T09:11:22.535Z,26.20
2022-08-23T09:12:32.968Z,26.10
2022-08-23T09:14:24.159Z,26.10
2022-08-23T09:15:49.480Z,26.00
2022-08-23T09:17:05.270Z,26.00
2022-08-23T09:18:11.645Z,26.00
2022-08-23T09:19:13.832Z,26.00
2022-08-23T09:20:17.839Z,26.20
2022-08-23T09:21:20.316Z,26.40
2022-08-23T09:22:30.737Z,26.40
2022-08-23T09:24:00.337Z,26.60
2022-08-23T09:25:02.340Z,26.70
2022-08-23T09:26:20.212Z,26.80
2022-08-23T09:27:22.744Z,26.90
2022-08-23T09:28:24.897Z,26.70
2022-08-23T09:29:32.350Z,26.80
2022-08-23T09:30:54.881Z,26.90
2022-08-23T09:32:02.618Z,26.90
2022-08-23T09:33:26.245Z,27.00
2022-08-23T09:34:42.142Z,27.10
2022-08-23T09:35:43.774Z,27.20
2022-08-23T09:36:46.090Z,27.20
2022-08-23T09:37:53.181Z,27.00
2022-08-23T09:39:00.750Z,27.00
2022-08-23T09:40:19.980Z,27.00
2022-08-23T09:41:28.341Z,27.10
2022-08-23T09:42:33.596Z,27.20
2022-08-23T09:43:44.316Z,27.30
2022-08-23T09:44:45.942Z,27.20
2022-08-23T09:45:51.065Z,27.10
2022-08-23T09:47:06.784Z,27.00
2022-08-23T09:48:13.342Z,26.90
2022-08-23T09:49:22.864Z,27.00
2022-08-23T09:50:49.960Z,27.10
2022-08-23T09:51:54.247Z,27.20
2022-08-23T09:53:04.294Z,27.30
2022-08-23T09:54:13.342Z,27.30
2022-08-23T09:55:56.108Z,27.30
2022-08-23T09:57:01.210Z,27.40
2022-08-23T09:58:06.710Z,27.40
2022-08-23T09:59:34.037Z,27.30
2022-08-23T10:00:36.964Z,27.40
2022-08-23T10:01:39.486Z,27.50
2022-08-23T10:02:41.311Z,27.60
2022-08-23T10:03:43.099Z,27.80
2022-08-23T10:04:52.531Z,27.80
2022-08-23T10:05:58.248Z,28.00
2022-08-23T10:06:59.891Z,28.20
2022-08-23T10:08:02.910Z,28.30
2022-08-23T10:09:06.969Z,28.60
2022-08-23T10:10:20.648Z,28.60
2022-08-23T10:11:26.055Z,28.90
2022-08-23T10:12:29.857Z,29.10
2022-08-23T10:13:32.564Z,29.10
2022-08-23T10:14:34.223Z,29.20
2022-08-23T10:15:49.333Z,29.30
2022-08-23T10:17:11.076Z,29.10
2022-08-23T10:18:53.639Z,29.20
2022-08-23T10:20:15.129Z,29.20
2022-08-23T10:21:41.925Z,29.00
2022-08-23T10:22:54.580Z,29.10
2022-08-23T10:24:16.763Z,29.30
2022-08-23T10:25:35.764Z,29.30
2022-08-23T10:26:45.044Z,29.40
2022-08-23T10:28:16.233Z,29.20
2022-08-23T10:29:41.192Z,29.10
2022-08-23T10:31:02.107Z,29.20
2022-08-23T10:32:22.830Z,29.40
2022-08-23T10:33:42.509Z,29.30
2022-08-23T10:35:06.228Z,29.50
2022-08-23T10:36:27.412Z,29.70
2022-08-23T10:37:57.720Z,29.80
2022-08-23T10:39:13.163Z,29.70
2022-08-23T10:40:25.581Z,29.80
2022-08-23T10:42:00.831Z,29.70
2022-08-23T10:43:34.928Z,29.50
2022-08-23T10:45:00.624Z,29.20
2022-08-23T10:46:03.159Z,29.20
2022-08-23T10:47:14.268Z,29.20
2022-08-23T10:48:35.934Z,29.30
2022-08-23T10:49:40.098Z,29.10
2022-08-23T10:50:55.932Z,29.10
2022-08-23T10:51:59.242Z,29.10
2022-08-23T10:53:15.122Z,29.10
2022-08-23T10:54:45.886Z,28.80
2022-08-23T10:56:02.920Z,28.50
2022-08-23T10:57:06.323Z,28.50
2022-08-23T10:58:15.564Z,28.80
2022-08-23T10:59:24.181Z,29.00
2022-08-23T11:00:29.192Z,29.00
2022-08-23T11:01:39.725Z,29.30
2022-08-23T11:02:59.663Z,29.30
2022-08-23T11:04:29.736Z,29.40
2022-08-23T11:05:35.393Z,29.50
2022-08-23T11:06:37.230Z,29.20
2022-08-23T11:07:42.883Z,29.20
2022-08-23T11:08:48.087Z,29.20
2022-08-23T11:09:58.353Z,29.30
2022-08-23T11:11:00.308Z,29.40
2022-08-23T11:12:22.733Z,29.50
2022-08-23T11:13:30.217Z,29.70
2022-08-23T11:14:32.163Z,29.70
2022-08-23T11:16:01.003Z,29.90
2022-08-23T11:17:07.821Z,30.00
2022-08-23T11:18:33.329Z,30.00
2022-08-23T11:19:57.489Z,30.10
2022-08-23T11:21:01.810Z,29.90
2022-08-23T11:22:20.443Z,30.00
2022-08-23T11:23:44.113Z,30.10
2022-08-23T11:24:50.970Z,30.20
2022-08-23T11:25:53.239Z,30.40
2022-08-23T11:27:07.116Z,30.30
2022-08-23T11:28:24.190Z,30.50
2022-08-23T11:29:28.482Z,30.30
2022-08-23T11:30:33.440Z,30.00
2022-08-23T11:31:41.396Z,29.90
2022-08-23T11:32:45.509Z,29.90
2022-08-23T11:34:05.684Z,30.10
2022-08-23T11:35:43.022Z,30.30
2022-08-23T11:37:24.647Z,30.40
2022-08-23T11:38:47.697Z,30.70
2022-08-23T11:40:06.308Z,30.80
2022-08-23T11:41:28.260Z,30.90
2022-08-23T11:42:33.188Z,31.10
2022-08-23T11:43:40.373Z,31.20
2022-08-23T11:44:48.661Z,31.20
2022-08-23T11:45:54.156Z,31.10
2022-08-23T11:47:02.700Z,30.90
2022-08-23T11:48:19.920Z,30.80
2022-08-23T11:49:39.078Z,30.80
2022-08-23T11:50:57.805Z,30.90
2022-08-23T11:52:27.113Z,30.60
2022-08-23T11:53:49.441Z,30.60
2022-08-23T11:55:10.538Z,30.60
2022-08-23T11:56:53.454Z,30.50
2022-08-23T11:58:10.356Z,30.60
2022-08-23T11:59:49.278Z,30.60
2022-08-23T12:01:07.616Z,30.70
2022-08-23T12:02:48.028Z,31.00
2022-08-23T12:04:09.529Z,31.20
2022-08-23T12:05:23.495Z,31.30
2022-08-23T12:06:50.569Z,31.30
2022-08-23T12:08:13.850Z,31.30
2022-08-23T12:09:24.446Z,31.50
2022-08-23T12:10:41.103Z,31.40
2022-08-23T12:11:54.965Z,31.40
2022-08-23T12:13:18.413Z,31.30
2022-08-23T12:14:32.143Z,31.10
2022-08-23T12:16:16.520Z,31.30
2022-08-23T12:17:20.353Z,31.40
2022-08-23T12:18:26.662Z,31.60
2022-08-23T12:19:42.297Z,31.70
2022-08-23T12:20:48.600Z,31.00
2022-08-23T12:21:54.785Z,31.10
2022-08-23T12:23:07.722Z,30.80
2022-08-23T12:24:32.802Z,30.60
2022-08-23T12:25:35.078Z,30.60
2022-08-23T12:26:42.163Z,30.90
2022-08-23T12:27:51.185Z,31.20
2022-08-23T12:28:59.772Z,31.40
2022-08-23T12:30:25.108Z,31.50
2022-08-23T12:31:35.640Z,31.70
2022-08-23T12:32:55.230Z,31.30
2022-08-23T12:34:24.457Z,31.40
2022-08-23T12:35:30.219Z,31.70
2022-08-23T12:36:48.068Z,31.70
2022-08-23T12:38:14.135Z,31.90
2022-08-23T12:39:50.635Z,31.90
2022-08-23T12:40:54.638Z,31.60
2022-08-23T12:42:11.492Z,31.40
2022-08-23T12:43:24.381Z,31.60
2022-08-23T12:44:28.623Z,31.80
2022-08-23T12:45:38.245Z,31.60
2022-08-23T12:46:44.012Z,31.90
2022-08-23T12:48:00.621Z,32.10
2022-08-23T12:49:03.205Z,32.60
2022-08-23T12:50:10.423Z,32.70
2022-08-23T12:51:12.949Z,32.90
2022-08-23T12:52:14.728Z,32.80
2022-08-23T12:53:30.780Z,32.70
2022-08-23T12:54:41.928Z,32.40
2022-08-23T12:55:49.712Z,32.30
2022-08-23T12:56:54.566Z,32.20
2022-08-23T12:57:58.089Z,32.20
2022-08-23T12:59:07.017Z,32.40
2022-08-23T13:00:18.495Z,32.30
2022-08-23T13:01:31.478Z,32.40
2022-08-23T13:02:41.101Z,32.60
2022-08-23T13:03:46.994Z,32.60
2022-08-23T13:04:48.615Z,32.70
2022-08-23T13:05:57.145Z,32.80
2022-08-23T13:07:08.194Z,32.90
2022-08-23T13:08:13.847Z,32.90
2022-08-23T13:09:21.957Z,33.10
2022-08-23T13:10:24.890Z,33.10
2022-08-23T13:11:31.101Z,33.00
2022-08-23T13:12:32.824Z,33.10
2022-08-23T13:13:36.639Z,33.30
2022-08-23T13:14:40.907Z,33.50
2022-08-23T13:15:55.989Z,33.80
2022-08-23T13:17:12.380Z,33.90
2022-08-23T13:18:45.770Z,34.10
2022-08-23T13:19:50.652Z,34.10
2022-08-23T13:21:17.485Z,34.00
2022-08-23T13:22:25.057Z,34.20
2022-08-23T13:23:29.647Z,33.80
2022-08-23T13:24:38.044Z,33.10
2022-08-23T13:25:42.043Z,33.10
2022-08-23T13:26:44.886Z,32.80
2022-08-23T13:27:46.433Z,32.90
2022-08-23T13:29:08.365Z,33.00
2022-08-23T13:30:09.917Z,33.10
2022-08-23T13:31:11.553Z,33.10
2022-08-23T13:32:41.702Z,33.00
2022-08-23T13:33:53.456Z,33.30
2022-08-23T13:34:56.476Z,33.50
2022-08-23T13:36:16.088Z,33.70
2022-08-23T13:37:29.194Z,34.10
2022-08-23T13:38:32.250Z,34.30
2022-08-23T13:39:34.559Z,34.40
2022-08-23T13:41:03.430Z,34.50
2022-08-23T13:42:05.136Z,34.80
2022-08-23T13:43:12.020Z,35.00
2022-08-23T13:44:18.511Z,35.10
2022-08-23T13:45:24.629Z,35.00
2022-08-23T13:46:29.350Z,35.20
2022-08-23T13:47:31.308Z,35.20
2022-08-23T13:48:54.231Z,35.30
2022-08-23T13:49:58.017Z,35.50
2022-08-23T13:51:19.119Z,35.50
2022-08-23T13:53:42.274Z,35.10
2022-08-23T13:54:44.225Z,35.10
2022-08-23T13:55:53.722Z,34.90
2022-08-23T13:57:00.518Z,35.00
2022-08-23T13:58:02.160Z,34.80
2022-08-23T13:59:32.605Z,34.20
2022-08-23T14:00:34.204Z,34.00
2022-08-23T14:01:36.317Z,34.00
2022-08-23T14:02:38.848Z,34.10
2022-08-23T14:03:40.458Z,34.00
2022-08-23T14:04:42.637Z,34.20
2022-08-23T14:05:44.252Z,34.30
2022-08-23T14:06:48.816Z,34.20
2022-08-23T14:07:52.954Z,34.40
2022-08-23T14:08:54.604Z,34.40
2022-08-23T14:09:57.484Z,34.10
2022-08-23T14:10:59.186Z,34.30
2022-08-23T14:12:04.771Z,34.40
2022-08-23T14:13:11.741Z,34.30
2022-08-23T14:14:13.603Z,34.40
2022-08-23T14:15:16.265Z,34.30
2022-08-23T14:16:39.112Z,34.00
2022-08-23T14:17:45.224Z,33.90
2022-08-23T14:21:32.863Z,34.00
2022-08-23T14:22:35.393Z,33.20
2022-08-23T14:23:37.023Z,33.00
2022-08-23T14:24:38.855Z,33.00
2022-08-23T14:25:40.563Z,33.00
2022-08-23T14:26:51.803Z,33.10
2022-08-23T14:27:54.089Z,33.40
2022-08-23T14:28:56.288Z,33.80
2022-08-23T14:29:58.375Z,33.90
2022-08-23T14:31:00.169Z,33.80